Time;durP1;ratioP1;P1;durP2;ratioP2;P2;SDS_P1;SDS_P2;PMS_P1;PMS_P2;Temp;Humidity;BMP_temperature;BMP_pressure;BME280_temperature;BME280_humidity;BME280_pressure;Samples;Min_cycle;Max_cycle;Signal;HPM_P1;HPM_P2
2021/12/30 00:01:06;;;;;;;2.87;1.20;;;;;;;10.57;100.00;99754.81;5007794;28;20229;-64
2021/12/30 00:03:32;;;;;;;3.90;1.30;;;;;;;10.59;100.00;99750.41;5035315;28;20264;-64
2021/12/30 00:05:58;;;;;;;3.07;0.97;;;;;;;10.75;100.00;99765.72;5028409;28;20587;-64
2021/12/30 00:08:24;;;;;;;2.77;1.30;;;;;;;10.65;100.00;99763.72;5029668;28;20276;-64
2021/12/30 00:10:50;;;;;;;2.43;1.17;;;;;;;10.63;100.00;99770.69;5025878;28;20313;-64
2021/12/30 00:13:16;;;;;;;2.07;1.10;;;;;;;10.56;100.00;99784.84;5038858;28;20180;-64
2021/12/30 00:15:41;;;;;;;2.60;1.30;;;;;;;10.59;100.00;99776.13;5024541;28;20324;-64
2021/12/30 00:18:08;;;;;;;1.70;0.93;;;;;;;10.63;100.00;99780.16;5039935;28;20209;-64
2021/12/30 00:20:34;;;;;;;2.20;1.13;;;;;;;10.80;100.00;99792.84;5023925;28;20229;-65
2021/12/30 00:23:03;;;;;;;3.03;1.33;;;;;;;10.92;100.00;99809.28;5040885;28;20278;-65
2021/12/30 00:25:29;;;;;;;2.13;1.27;;;;;;;10.85;100.00;99815.69;5025887;28;20221;-65
2021/12/30 00:27:54;;;;;;;5.83;1.23;;;;;;;10.71;100.00;99808.81;5009719;28;20202;-65
2021/12/30 00:30:20;;;;;;;3.10;1.27;;;;;;;10.66;100.00;99821.13;4981993;28;20179;-65
2021/12/30 00:32:45;;;;;;;2.27;1.23;;;;;;;10.63;100.00;99819.56;5022563;28;20179;-65
2021/12/30 00:35:12;;;;;;;3.83;1.40;;;;;;;10.68;100.00;99808.19;5009523;28;20258;-65
2021/12/30 00:37:38;;;;;;;4.67;1.37;;;;;;;10.64;100.00;99803.22;5009858;28;20199;-65
2021/12/30 00:40:05;;;;;;;5.60;1.37;;;;;;;10.54;100.00;99806.44;5002771;28;20179;-65
2021/12/30 00:42:30;;;;;;;3.23;1.27;;;;;;;10.43;100.00;99813.03;5024157;28;20598;-64
2021/12/30 00:44:55;;;;;;;4.47;1.50;;;;;;;10.31;100.00;99829.16;5009566;28;20229;-65
2021/12/30 00:47:20;;;;;;;1.83;1.20;;;;;;;10.26;100.00;99828.59;5009583;28;20191;-65
2021/12/30 00:49:46;;;;;;;5.23;1.50;;;;;;;10.35;100.00;99833.19;5009821;28;20174;-65
2021/12/30 00:52:11;;;;;;;2.70;1.27;;;;;;;10.38;100.00;99840.78;5024769;28;20236;-65
2021/12/30 00:54:36;;;;;;;2.77;1.50;;;;;;;10.44;100.00;99852.44;5018141;28;20526;-65
2021/12/30 00:57:02;;;;;;;4.10;1.60;;;;;;;10.45;100.00;99854.91;5018641;28;20687;-65
2021/12/30 00:59:27;;;;;;;4.10;1.80;;;;;;;10.54;100.00;99852.72;5020935;28;20178;-65
2021/12/30 01:01:53;;;;;;;3.63;1.60;;;;;;;10.46;100.00;99855.75;5026173;28;20671;-65
2021/12/30 01:04:20;;;;;;;3.30;1.57;;;;;;;10.51;100.00;99853.72;5026767;28;20312;-65
2021/12/30 01:06:45;;;;;;;4.90;1.97;;;;;;;10.57;100.00;99858.50;5029386;28;20193;-65
2021/12/30 01:09:11;;;;;;;6.17;1.93;;;;;;;10.51;100.00;99858.06;5032671;28;20529;-65
2021/12/30 01:11:36;;;;;;;6.67;2.53;;;;;;;10.49;100.00;99858.13;5033833;28;20233;-64
2021/12/30 01:14:09;;;;;;;7.20;2.20;;;;;;;10.54;100.00;99863.81;5024201;28;20260;-66
2021/12/30 01:16:41;;;;;;;5.57;2.20;;;;;;;10.63;100.00;99875.31;5030376;28;20745;-65
2021/12/30 01:21:53;;;;;;;5.20;2.40;;;;;;;10.60;100.00;99884.03;5036614;28;20336;-65
2021/12/30 01:24:20;;;;;;;4.57;1.57;;;;;;;10.71;100.00;99898.03;5033498;28;20178;-65
2021/12/30 01:26:45;;;;;;;8.43;2.20;;;;;;;10.72;100.00;99899.72;5018515;28;20191;-65
2021/12/30 01:29:11;;;;;;;6.13;2.60;;;;;;;10.67;100.00;99905.13;5012518;28;20241;-65
2021/12/30 01:31:36;;;;;;;5.97;2.30;;;;;;;10.71;100.00;99908.34;5014539;28;20234;-65
2021/12/30 01:34:01;;;;;;;6.13;2.00;;;;;;;10.69;100.00;99902.44;5015600;28;20483;-65
2021/12/30 01:36:27;;;;;;;8.57;3.10;;;;;;;10.61;100.00;99903.72;5012604;28;20333;-64
2021/12/30 01:38:54;;;;;;;6.67;2.10;;;;;;;10.69;100.00;99910.16;5012505;28;20333;-65
2021/12/30 01:41:21;;;;;;;7.40;2.13;;;;;;;10.56;100.00;99913.44;5012022;28;20767;-65
2021/12/30 01:43:46;;;;;;;8.33;2.40;;;;;;;10.55;100.00;99916.09;5017319;28;20187;-65
2021/12/30 01:46:12;;;;;;;5.60;2.40;;;;;;;10.55;100.00;99921.25;5012557;28;20294;-65
2021/12/30 01:48:37;;;;;;;6.67;1.80;;;;;;;10.58;100.00;99939.91;5010921;28;20198;-65
2021/12/30 01:51:04;;;;;;;9.70;2.77;;;;;;;10.61;100.00;99946.63;5009873;28;20233;-65
2021/12/30 01:53:30;;;;;;;8.40;3.00;;;;;;;10.58;100.00;99949.34;5019221;28;20197;-65
2021/12/30 01:55:55;;;;;;;6.17;2.17;;;;;;;10.57;100.00;99951.09;5012039;28;20217;-65
2021/12/30 01:58:21;;;;;;;10.43;2.73;;;;;;;10.63;100.00;99952.47;5011781;28;20194;-63
2021/12/30 02:00:48;;;;;;;7.37;2.30;;;;;;;10.72;100.00;99949.41;5007783;28;20675;-63
2021/12/30 02:03:15;;;;;;;7.80;2.17;;;;;;;10.77;100.00;99942.25;5021233;28;20179;-64
2021/12/30 02:05:48;;;;;;;8.33;2.73;;;;;;;10.75;100.00;99938.91;5011800;28;20499;-65
2021/12/30 02:08:15;;;;;;;8.93;2.73;;;;;;;10.74;100.00;99933.88;5012779;28;20762;-64
2021/12/30 02:10:45;;;;;;;7.87;2.30;;;;;;;10.63;100.00;99927.59;5019906;28;20572;-66
2021/12/30 02:13:12;;;;;;;6.80;2.00;;;;;;;10.56;100.00;99935.78;5021576;28;20546;-63
2021/12/30 02:15:38;;;;;;;7.47;2.20;;;;;;;10.49;100.00;99930.97;5014135;28;20304;-64
2021/12/30 02:18:04;;;;;;;9.30;2.53;;;;;;;10.51;100.00;99922.34;5023231;28;20662;-64
2021/12/30 02:20:50;;;;;;;10.83;2.53;;;;;;;10.45;100.00;99923.50;5015705;28;20232;-64
2021/12/30 02:23:24;;;;;;;9.50;1.90;;;;;;;10.41;100.00;99924.63;5040656;28;20252;-64
2021/12/30 02:26:04;;;;;;;5.47;2.10;;;;;;;10.40;100.00;99926.34;5024789;28;20170;-64
2021/12/30 02:28:32;;;;;;;8.07;2.03;;;;;;;10.38;100.00;99941.03;5011681;28;20246;-64
2021/12/30 02:31:00;;;;;;;5.63;2.30;;;;;;;10.44;100.00;99942.44;5008293;28;20305;-64
2021/12/30 02:33:26;;;;;;;6.47;2.20;;;;;;;10.49;100.00;99948.13;5019214;28;20175;-64
2021/12/30 02:35:53;;;;;;;7.77;2.27;;;;;;;10.42;100.00;99949.38;5011496;28;20221;-64
2021/12/30 02:38:19;;;;;;;4.33;1.90;;;;;;;10.45;100.00;99951.81;5011215;28;20210;-64
2021/12/30 02:40:50;;;;;;;6.00;2.50;;;;;;;10.37;100.00;99954.81;5006817;28;20232;-64
2021/12/30 02:43:20;;;;;;;5.33;2.20;;;;;;;10.30;100.00;99961.19;5018714;28;20175;-64
2021/12/30 02:45:46;;;;;;;7.23;2.50;;;;;;;10.36;100.00;99962.56;5010967;28;20171;-64
2021/12/30 02:48:13;;;;;;;5.17;1.70;;;;;;;10.43;100.00;99969.06;5011407;28;20228;-64
2021/12/30 02:50:39;;;;;;;8.37;2.30;;;;;;;10.45;100.00;99977.53;5005680;28;20226;-65
2021/12/30 02:53:04;;;;;;;9.93;2.07;;;;;;;10.49;100.00;99977.28;5021605;28;20182;-65
2021/12/30 02:55:30;;;;;;;3.93;2.10;;;;;;;10.36;100.00;99981.44;5009430;28;20199;-65
2021/12/30 02:57:55;;;;;;;4.73;1.87;;;;;;;10.54;100.00;99989.03;5010845;28;20285;-64
2021/12/30 03:00:20;;;;;;;4.17;1.87;;;;;;;10.64;100.00;99992.72;5003098;28;20217;-65
2021/12/30 03:02:46;;;;;;;7.87;1.90;;;;;;;10.64;100.00;99988.44;5023883;28;20182;-65
2021/12/30 03:05:16;;;;;;;7.83;2.50;;;;;;;10.71;100.00;99988.91;5010649;28;20198;-65
2021/12/30 03:07:41;;;;;;;7.13;2.23;;;;;;;10.66;100.00;99988.34;5010896;28;20698;-65
2021/12/30 03:10:14;;;;;;;5.47;1.97;;;;;;;10.57;100.00;99984.53;5001528;28;20178;-64
2021/12/30 03:12:39;;;;;;;7.53;2.17;;;;;;;10.56;100.00;99982.06;5024241;28;20181;-65
2021/12/30 03:15:05;;;;;;;8.47;2.17;;;;;;;10.56;100.00;99974.34;5010608;28;20186;-65
2021/12/30 03:17:30;;;;;;;9.23;2.13;;;;;;;10.46;100.00;99974.03;5010467;28;20257;-65
2021/12/30 03:19:56;;;;;;;6.10;2.33;;;;;;;10.55;100.00;99975.25;5010850;28;20255;-65
2021/12/30 03:22:22;;;;;;;5.73;2.20;;;;;;;10.56;100.00;99975.16;5016096;28;20737;-65
2021/12/30 03:24:47;;;;;;;3.90;1.80;;;;;;;10.61;100.00;99980.88;5010437;28;20175;-64
2021/12/30 03:27:12;;;;;;;8.87;2.43;;;;;;;10.58;100.00;99967.34;5010091;28;20684;-64
2021/12/30 03:29:37;;;;;;;7.13;2.10;;;;;;;10.54;100.00;99971.03;5010563;28;20754;-64
2021/12/30 03:32:03;;;;;;;4.90;2.10;;;;;;;10.54;100.00;99971.03;5015626;28;20221;-64
2021/12/30 03:34:28;;;;;;;7.50;2.07;;;;;;;10.64;100.00;99977.28;5010322;28;20179;-64
2021/12/30 03:36:53;;;;;;;4.97;1.97;;;;;;;10.68;100.00;99986.53;5010429;28;20249;-64
2021/12/30 03:39:19;;;;;;;8.83;2.67;;;;;;;10.71;100.00;99988.91;5010347;28;20198;-64
2021/12/30 03:41:44;;;;;;;7.30;2.30;;;;;;;10.64;100.00;99988.44;5012703;28;20359;-64
2021/12/30 03:44:10;;;;;;;6.70;1.87;;;;;;;10.61;100.00;99983.44;5012373;28;20171;-64
2021/12/30 03:46:35;;;;;;;7.37;2.03;;;;;;;10.46;100.00;99979.19;5010277;28;20249;-63
2021/12/30 03:49:01;;;;;;;8.80;2.37;;;;;;;10.39;100.00;99994.09;5010204;28;20233;-64
2021/12/30 03:51:26;;;;;;;8.40;2.30;;;;;;;10.46;100.00;100004.91;5010985;28;20276;-64
2021/12/30 03:53:55;;;;;;;5.50;2.10;;;;;;;10.47;100.00;100004.81;5014363;28;20785;-64
2021/12/30 03:56:24;;;;;;;10.83;2.63;;;;;;;10.51;100.00;99997.75;5009992;28;20202;-64
2021/12/30 03:58:50;;;;;;;5.40;1.87;;;;;;;10.59;100.00;99998.16;5010099;28;20199;-64
2021/12/30 04:01:19;;;;;;;9.30;2.37;;;;;;;10.60;100.00;100006.69;4999018;28;20225;-64
2021/12/30 04:03:45;;;;;;;9.60;2.37;;;;;;;10.55;100.00;99996.66;5015305;28;20175;-64
2021/12/30 04:06:11;;;;;;;5.20;2.00;;;;;;;10.41;100.00;100001.75;5010006;28;20186;-64
2021/12/30 04:08:37;;;;;;;7.27;2.00;;;;;;;10.54;100.00;100000.13;5010061;28;20199;-64
2021/12/30 04:11:03;;;;;;;5.53;2.03;;;;;;;10.56;100.00;100002.66;5007772;28;20299;-64
2021/12/30 04:13:29;;;;;;;8.00;2.67;;;;;;;10.51;100.00;100010.59;5017345;28;20542;-64
2021/12/30 04:15:55;;;;;;;10.47;2.30;;;;;;;10.58;100.00;100006.78;5008103;28;20226;-64
2021/12/30 04:18:20;;;;;;;10.17;2.93;;;;;;;10.56;100.00;100003.47;5022540;28;20251;-64
2021/12/30 04:20:46;;;;;;;8.67;2.30;;;;;;;10.43;100.00;100015.34;5010756;28;20761;-65
2021/12/30 04:23:12;;;;;;;6.33;2.13;;;;;;;10.42;100.00;100016.25;5022779;28;20198;-65
2021/12/30 04:25:38;;;;;;;8.53;2.40;;;;;;;10.28;100.00;100019.53;5009528;28;20187;-64
2021/12/30 04:28:03;;;;;;;4.90;2.10;;;;;;;10.32;100.00;100028.78;5017580;28;20210;-65
2021/12/30 04:30:29;;;;;;;12.07;2.60;;;;;;;10.26;100.00;100026.53;5000341;28;20355;-64
2021/12/30 04:32:54;;;;;;;13.03;2.80;;;;;;;10.07;100.00;100027.53;5041943;28;20189;-65
2021/12/30 04:35:20;;;;;;;10.97;2.30;;;;;;;10.10;100.00;100035.06;5029195;28;20174;-65
2021/12/30 04:37:45;;;;;;;5.77;2.00;;;;;;;10.07;100.00;100039.53;5029591;28;20280;-65
2021/12/30 04:40:12;;;;;;;7.83;2.50;;;;;;;9.93;100.00;100047.97;5020465;28;20512;-65
2021/12/30 04:42:37;;;;;;;8.00;2.33;;;;;;;9.95;100.00;100039.28;5029130;28;20197;-65
2021/12/30 04:45:04;;;;;;;8.57;2.13;;;;;;;10.03;100.00;100036.28;5013375;28;20178;-65
2021/12/30 04:47:30;;;;;;;11.57;2.50;;;;;;;9.94;100.00;100044.50;5013561;28;20198;-65
2021/12/30 04:49:57;;;;;;;6.27;2.53;;;;;;;9.90;100.00;100035.28;5013573;28;20177;-65
2021/12/30 04:52:23;;;;;;;9.40;2.27;;;;;;;9.93;100.00;100035.94;5018708;28;20261;-64
2021/12/30 04:54:49;;;;;;;8.40;2.13;;;;;;;9.81;100.00;100032.31;5013054;28;20213;-64
2021/12/30 04:57:15;;;;;;;5.73;2.00;;;;;;;9.66;100.00;100035.66;5013500;28;20203;-64
2021/12/30 04:59:40;;;;;;;7.93;2.33;;;;;;;9.71;100.00;100033.69;5012764;28;20301;-64
2021/12/30 05:02:05;;;;;;;10.30;2.70;;;;;;;9.69;100.00;100032.94;5013126;28;20250;-65
2021/12/30 05:04:30;;;;;;;11.50;2.83;;;;;;;9.76;100.00;100038.59;5027289;28;20221;-65
2021/12/30 05:06:56;;;;;;;6.53;2.50;;;;;;;9.84;100.00;100034.69;4999861;28;20211;-65
2021/12/30 05:09:21;;;;;;;10.23;2.53;;;;;;;9.86;100.00;100039.78;4996524;28;20285;-64
2021/12/30 05:11:46;;;;;;;9.37;2.70;;;;;;;9.84;100.00;100044.97;5012202;28;20222;-64
2021/12/30 05:14:12;;;;;;;9.17;2.23;;;;;;;9.57;100.00;100047.22;4995290;28;20252;-65
2021/12/30 05:16:38;;;;;;;4.57;2.30;;;;;;;9.63;100.00;100048.66;4993387;28;20284;-65
2021/12/30 05:19:04;;;;;;;6.30;2.30;;;;;;;9.67;100.00;100052.72;4993844;28;20865;-64
2021/12/30 05:21:29;;;;;;;9.27;2.80;;;;;;;9.65;100.00;100045.13;4994847;28;20250;-65
2021/12/30 05:23:54;;;;;;;5.73;2.37;;;;;;;9.57;100.00;100041.28;4991467;28;20210;-65
2021/12/30 05:26:22;;;;;;;9.23;2.63;;;;;;;9.60;100.00;100044.53;5003474;28;20183;-65
2021/12/30 05:28:48;;;;;;;6.63;2.17;;;;;;;9.77;100.00;100046.19;5012728;28;20729;-64
2021/12/30 05:31:13;;;;;;;5.23;2.43;;;;;;;9.72;100.00;100053.31;5011906;28;20229;-65
2021/12/30 05:33:38;;;;;;;4.77;2.10;;;;;;;9.89;100.00;100051.63;5018612;28;20620;-65
2021/12/30 05:36:04;;;;;;;10.33;2.87;;;;;;;9.91;100.00;100057.50;5012656;28;20546;-64
2021/12/30 05:38:29;;;;;;;9.43;2.50;;;;;;;10.06;100.00;100048.16;5012487;28;20544;-65
2021/12/30 05:40:55;;;;;;;7.80;2.17;;;;;;;9.98;100.00;100048.56;5009415;28;20241;-65
2021/12/30 05:43:20;;;;;;;10.03;2.60;;;;;;;9.76;100.00;100054.84;5020881;28;20546;-65
2021/12/30 05:45:45;;;;;;;4.10;2.47;;;;;;;9.90;100.00;100064.38;5012194;28;20175;-64
2021/12/30 05:48:11;;;;;;;6.77;2.07;;;;;;;9.95;100.00;100061.59;5012285;28;20205;-64
2021/12/30 05:50:36;;;;;;;6.97;2.40;;;;;;;9.97;100.00;100067.47;5004390;28;20230;-63
2021/12/30 05:53:03;;;;;;;8.93;2.87;;;;;;;10.17;100.00;100058.69;5022793;28;20183;-64
2021/12/30 05:55:29;;;;;;;11.30;3.30;;;;;;;10.10;100.00;100077.94;5010869;28;20175;-64
2021/12/30 05:57:55;;;;;;;8.63;2.50;;;;;;;10.14;100.00;100069.16;5012391;28;20203;-64
2021/12/30 06:00:22;;;;;;;10.90;3.43;;;;;;;10.04;100.00;100067.97;5004474;28;20178;-64
2021/12/30 06:02:48;;;;;;;7.40;2.70;;;;;;;9.99;100.00;100075.94;5024755;28;20185;-64
2021/12/30 06:05:14;;;;;;;6.17;2.27;;;;;;;9.90;100.00;100082.38;5012303;28;20187;-65
2021/12/30 06:07:39;;;;;;;9.97;2.63;;;;;;;10.08;100.00;100080.56;5011820;28;20736;-64
2021/12/30 06:10:06;;;;;;;8.33;2.70;;;;;;;10.15;100.00;100088.78;5002783;28;20174;-64
2021/12/30 06:12:32;;;;;;;3.37;2.00;;;;;;;10.13;100.00;100090.63;5026671;28;20615;-64
2021/12/30 06:14:57;;;;;;;5.90;2.37;;;;;;;10.14;100.00;100099.97;5011743;28;20178;-64
2021/12/30 06:17:23;;;;;;;10.30;2.77;;;;;;;9.84;100.00;100091.22;5011580;28;20244;-64
2021/12/30 06:19:48;;;;;;;7.43;2.57;;;;;;;9.72;100.00;100097.00;5011802;28;20179;-64
2021/12/30 06:22:14;;;;;;;9.30;3.70;;;;;;;9.68;100.00;100095.50;5017103;28;20294;-64
2021/12/30 06:24:40;;;;;;;5.77;2.33;;;;;;;9.67;100.00;100099.81;5009961;28;20302;-64
2021/12/30 06:27:06;;;;;;;7.40;2.47;;;;;;;9.73;100.00;100103.78;5011559;28;20187;-64
2021/12/30 06:29:33;;;;;;;5.17;2.50;;;;;;;9.91;100.00;100106.31;5011709;28;20206;-64
2021/12/30 06:31:58;;;;;;;9.30;2.40;;;;;;;9.96;100.00;100106.91;5016336;28;20241;-64
2021/12/30 06:34:23;;;;;;;7.03;2.50;;;;;;;10.05;100.00;100103.03;5011728;28;20183;-64
2021/12/30 06:36:49;;;;;;;8.90;3.20;;;;;;;9.98;100.00;100105.09;5011250;28;20686;-64
2021/12/30 06:39:15;;;;;;;7.90;2.50;;;;;;;10.10;100.00;100107.03;5011242;28;20203;-64
2021/12/30 06:41:40;;;;;;;4.97;2.23;;;;;;;10.13;100.00;100104.31;5013618;28;20239;-64
2021/12/30 06:44:05;;;;;;;6.90;2.33;;;;;;;10.25;100.00;100105.38;5013922;28;20252;-64
2021/12/30 06:46:31;;;;;;;5.43;2.40;;;;;;;10.20;100.00;100109.94;5010525;28;20178;-64
2021/12/30 06:48:56;;;;;;;9.37;2.83;;;;;;;10.24;100.00;100106.28;5011242;28;20898;-63
2021/12/30 06:51:24;;;;;;;8.77;2.40;;;;;;;10.34;100.00;100112.63;5011776;28;20238;-63
2021/12/30 06:53:54;;;;;;;6.43;2.07;;;;;;;10.51;100.00;100110.91;5014607;28;20186;-63
2021/12/30 06:56:21;;;;;;;4.90;1.73;;;;;;;10.58;100.00;100114.81;5012638;28;20301;-63
2021/12/30 06:58:46;;;;;;;2.43;1.40;;;;;;;10.78;100.00;100123.19;5015707;28;20292;-63
2021/12/30 07:01:12;;;;;;;3.07;1.57;;;;;;;10.97;100.00;100120.41;5015504;28;20333;-63
2021/12/30 07:03:37;;;;;;;1.77;1.00;;;;;;;11.15;100.00;100118.56;5024206;28;20179;-63
2021/12/30 07:06:02;;;;;;;0.90;0.80;;;;;;;11.14;100.00;100125.44;5015212;28;20221;-63
2021/12/30 07:08:28;;;;;;;1.30;0.83;;;;;;;11.32;100.00;100133.03;5012914;28;20194;-62
2021/12/30 07:10:53;;;;;;;0.90;0.80;;;;;;;11.40;100.00;100138.59;5006855;28;20300;-63
2021/12/30 07:13:18;;;;;;;1.13;0.70;;;;;;;11.60;100.00;100137.41;5018718;28;20315;-63
2021/12/30 07:15:44;;;;;;;0.70;0.70;;;;;;;11.53;100.00;100136.13;5014494;28;20211;-63
2021/12/30 07:18:09;;;;;;;3.23;0.80;;;;;;;11.62;100.00;100142.47;5011981;28;20225;-63
2021/12/30 07:20:34;;;;;;;1.37;1.27;;;;;;;11.76;100.00;100152.00;5007306;28;20213;-63
2021/12/30 07:23:00;;;;;;;2.20;2.00;;;;;;;11.87;100.00;100141.03;5023234;28;20193;-63
2021/12/30 07:25:25;;;;;;;1.03;1.03;;;;;;;11.93;100.00;100140.69;5011500;28;20182;-63
2021/12/30 07:27:54;;;;;;;2.27;0.70;;;;;;;11.88;100.00;100150.44;5014928;28;20216;-63
2021/12/30 07:30:23;;;;;;;1.03;0.87;;;;;;;11.92;100.00;100139.84;5008175;28;20190;-63
2021/12/30 07:32:48;;;;;;;0.60;0.60;;;;;;;11.97;100.00;100149.09;5029450;28;20185;-63
2021/12/30 07:35:15;;;;;;;0.70;0.70;;;;;;;12.02;100.00;100149.63;5013098;28;20202;-64
2021/12/30 07:37:40;;;;;;;0.73;0.60;;;;;;;11.99;100.00;100148.06;5016490;28;20663;-64
2021/12/30 07:40:07;;;;;;;0.40;0.40;;;;;;;12.16;100.00;100162.53;5005502;28;20206;-64
2021/12/30 07:42:32;;;;;;;0.60;0.60;;;;;;;12.32;100.00;100166.78;5030874;28;20604;-64
2021/12/30 07:44:57;;;;;;;0.60;0.60;;;;;;;12.33;100.00;100165.84;5017953;28;20266;-64
2021/12/30 07:47:23;;;;;;;0.50;0.50;;;;;;;12.38;100.00;100167.22;5012872;28;20202;-64
2021/12/30 07:49:48;;;;;;;1.70;1.13;;;;;;;12.36;100.00;100169.06;5021638;28;20178;-64
2021/12/30 07:52:14;;;;;;;0.67;0.57;;;;;;;12.42;100.00;100176.44;5029788;28;20229;-63
2021/12/30 07:54:43;;;;;;;0.50;0.50;;;;;;;12.57;100.00;100176.44;5010843;28;20287;-62
2021/12/30 07:57:09;;;;;;;0.57;0.50;;;;;;;12.68;100.00;100168.03;5007059;28;20215;-62
2021/12/30 07:59:34;;;;;;;0.90;0.60;;;;;;;12.72;100.00;100174.63;5013592;28;20229;-63
2021/12/30 08:02:00;;;;;;;0.50;0.50;;;;;;;12.75;100.00;100175.28;4999716;28;20808;-63
2021/12/30 08:04:25;;;;;;;0.80;0.80;;;;;;;12.76;100.00;100165.78;4998890;28;20187;-63
2021/12/30 08:06:51;;;;;;;0.77;0.70;;;;;;;12.87;100.00;100163.34;4990651;28;20225;-61
2021/12/30 08:09:16;;;;;;;1.90;0.70;;;;;;;12.83;100.00;100169.63;4990745;28;20278;-62
2021/12/30 08:11:41;;;;;;;1.57;1.30;;;;;;;12.66;100.00;100172.44;4993089;28;20245;-62
2021/12/30 08:14:06;;;;;;;1.30;1.20;;;;;;;12.70;100.00;100166.16;4999399;28;20282;-62
2021/12/30 08:16:32;;;;;;;0.70;0.70;;;;;;;12.69;100.00;100170.50;5000333;28;20313;-62
2021/12/30 08:18:58;;;;;;;1.53;1.43;;;;;;;12.81;100.00;100184.38;4997547;28;20660;-62
2021/12/30 08:21:24;;;;;;;1.27;1.13;;;;;;;12.86;100.00;100182.38;4995551;28;20372;-62
2021/12/30 08:23:51;;;;;;;1.73;1.53;;;;;;;12.94;100.00;100181.03;5003066;28;20282;-62
2021/12/30 08:26:17;;;;;;;3.37;1.33;;;;;;;12.96;100.00;100179.19;4996038;28;20183;-62
2021/12/30 08:28:43;;;;;;;5.67;5.07;;;;;;;12.79;100.00;100188.81;4997846;28;20209;-61
2021/12/30 08:31:08;;;;;;;1.90;1.70;;;;;;;12.71;100.00;100196.22;5001219;28;20320;-64
2021/12/30 08:33:33;;;;;;;4.70;3.37;;;;;;;12.74;100.00;100183.94;5040439;28;20220;-64
2021/12/30 08:35:59;;;;;;;0.90;0.90;;;;;;;12.85;100.00;100183.28;5033155;28;20205;-64
2021/12/30 08:38:24;;;;;;;4.77;4.30;;;;;;;12.87;100.00;100171.09;5033515;28;20832;-64
2021/12/30 08:40:50;;;;;;;2.83;0.93;;;;;;;12.82;100.00;100180.06;5028711;28;20350;-64
2021/12/30 08:43:17;;;;;;;0.97;0.80;;;;;;;13.03;100.00;100183.03;5022522;28;20220;-64
2021/12/30 08:45:44;;;;;;;0.83;0.80;;;;;;;13.20;100.00;100189.72;5020969;28;20262;-64
2021/12/30 08:48:09;;;;;;;1.50;1.40;;;;;;;13.29;100.00;100193.47;5028519;28;20544;-65
2021/12/30 08:50:35;;;;;;;1.47;1.00;;;;;;;13.34;100.00;100199.16;5009916;28;20230;-64
2021/12/30 08:53:00;;;;;;;0.93;0.90;;;;;;;13.18;100.00;100207.88;5012334;28;20186;-64
2021/12/30 08:55:26;;;;;;;0.80;0.70;;;;;;;13.16;100.00;100212.31;5009109;28;20191;-64
2021/12/30 08:57:51;;;;;;;1.00;0.90;;;;;;;13.16;100.00;100214.91;5005750;28;20217;-64
2021/12/30 09:00:23;;;;;;;0.60;0.60;;;;;;;13.04;100.00;100218.28;4998801;28;20688;-65
2021/12/30 09:02:49;;;;;;;1.00;0.70;;;;;;;13.06;100.00;100222.41;5045594;28;20201;-65
2021/12/30 09:05:14;;;;;;;0.70;0.70;;;;;;;13.10;100.00;100227.38;5032743;28;20264;-63
2021/12/30 09:07:40;;;;;;;1.10;0.50;;;;;;;13.27;100.00;100239.22;5033105;28;20198;-64
2021/12/30 09:10:08;;;;;;;0.67;0.67;;;;;;;13.35;100.00;100239.56;5022347;28;20742;-64
2021/12/30 09:12:33;;;;;;;1.50;0.60;;;;;;;13.38;100.00;100239.41;5037420;28;20639;-64
2021/12/30 09:14:59;;;;;;;1.70;0.60;;;;;;;13.46;100.00;100254.41;5019240;28;20267;-65
2021/12/30 09:17:25;;;;;;;0.60;0.60;;;;;;;13.50;100.00;100253.28;5017799;28;20703;-64
2021/12/30 09:19:50;;;;;;;0.93;0.83;;;;;;;13.59;100.00;100263.03;5017391;28;20189;-65
2021/12/30 09:22:16;;;;;;;1.70;0.50;;;;;;;13.45;100.00;100270.84;5029341;28;20225;-65
2021/12/30 09:24:41;;;;;;;1.70;0.40;;;;;;;13.56;100.00;100276.97;5026284;28;20182;-64
2021/12/30 09:27:06;;;;;;;0.37;0.33;;;;;;;13.78;100.00;100275.59;5013953;28;20269;-65
2021/12/30 09:29:32;;;;;;;1.70;1.10;;;;;;;13.90;100.00;100273.13;5016401;28;20187;-65
2021/12/30 09:31:58;;;;;;;0.60;0.60;;;;;;;13.59;100.00;100269.97;5028502;28;20275;-65
2021/12/30 09:34:23;;;;;;;0.87;0.83;;;;;;;13.39;100.00;100267.72;5032857;28;20178;-65
2021/12/30 09:36:49;;;;;;;2.00;0.73;;;;;;;13.70;100.00;100267.50;5032302;28;20213;-65
2021/12/30 09:39:15;;;;;;;1.50;1.00;;;;;;;13.82;100.00;100271.06;5032228;28;20197;-65
2021/12/30 09:41:44;;;;;;;1.10;0.63;;;;;;;13.82;100.00;100269.28;5004062;28;20221;-64
2021/12/30 09:44:10;;;;;;;2.37;1.10;;;;;;;13.98;100.00;100270.84;5021302;28;20182;-65
2021/12/30 09:46:37;;;;;;;0.50;0.50;;;;;;;13.99;100.00;100267.34;5023822;28;20186;-65
2021/12/30 09:49:05;;;;;;;1.20;0.40;;;;;;;14.07;100.00;100269.44;5031893;28;20221;-65
2021/12/30 09:51:30;;;;;;;0.50;0.50;;;;;;;14.21;100.00;100274.50;5026748;28;20232;-65
2021/12/30 09:53:56;;;;;;;0.57;0.50;;;;;;;14.22;100.00;100278.75;5016068;28;20585;-65
2021/12/30 09:56:23;;;;;;;0.60;0.50;;;;;;;14.40;100.00;100275.84;5012555;28;20198;-64
2021/12/30 09:58:48;;;;;;;0.40;0.40;;;;;;;14.48;100.00;100271.00;5011686;28;20248;-65
2021/12/30 10:01:14;;;;;;;0.70;0.70;;;;;;;14.67;100.00;100279.19;5019107;28;20226;-65
2021/12/30 10:03:41;;;;;;;0.53;0.30;;;;;;;14.44;100.00;100260.03;5035874;28;20594;-65
2021/12/30 10:06:09;;;;;;;0.70;0.40;;;;;;;14.37;100.00;100271.72;5014910;28;20548;-67
2021/12/30 10:08:40;;;;;;;0.40;0.40;;;;;;;14.67;100.00;100275.75;5022459;28;20195;-65
2021/12/30 10:11:12;;;;;;;0.60;0.50;;;;;;;14.96;100.00;100272.91;5020262;28;20249;-65
2021/12/30 10:13:40;;;;;;;0.40;0.40;;;;;;;14.91;100.00;100278.41;5037233;28;20216;-65
2021/12/30 10:16:14;;;;;;;0.40;0.40;;;;;;;15.14;100.00;100278.53;5026032;28;20220;-65
2021/12/30 10:19:02;;;;;;;0.57;0.30;;;;;;;15.25;100.00;100270.00;5023276;28;20209;-66
2021/12/30 10:21:31;;;;;;;0.40;0.40;;;;;;;15.19;99.35;100268.69;5032076;28;20320;-66
2021/12/30 10:24:02;;;;;;;0.30;0.30;;;;;;;15.23;99.59;100272.72;5035149;28;20180;-65
2021/12/30 10:26:28;;;;;;;0.40;0.40;;;;;;;15.06;99.75;100273.91;5020884;28;21001;-65
2021/12/30 10:28:59;;;;;;;2.47;0.50;;;;;;;15.21;100.00;100273.75;5022972;28;20198;-65
2021/12/30 10:31:28;;;;;;;1.60;0.33;;;;;;;15.09;99.53;100267.69;5009787;28;20301;-64
2021/12/30 10:33:58;;;;;;;2.83;0.77;;;;;;;15.25;99.30;100270.00;5009337;28;20294;-65
2021/12/30 10:36:35;;;;;;;0.30;0.30;;;;;;;15.23;98.75;100267.53;5003104;28;20257;-65
2021/12/30 10:39:26;;;;;;;0.60;0.60;;;;;;;15.20;99.39;100266.94;4997433;28;20203;-65
2021/12/30 10:42:05;;;;;;;2.13;0.43;;;;;;;15.18;98.45;100264.44;4984706;28;20238;-65
2021/12/30 10:45:05;;;;;;;0.30;0.30;;;;;;;15.18;98.15;100267.00;4990067;28;20267;-64
2021/12/30 10:47:50;;;;;;;0.40;0.40;;;;;;;15.23;98.23;100270.13;4992892;28;20582;-65
2021/12/30 10:50:15;;;;;;;0.40;0.40;;;;;;;15.23;98.49;100277.91;4985562;28;20187;-64
2021/12/30 10:52:50;;;;;;;1.33;0.60;;;;;;;15.16;98.09;100276.69;5016136;28;20193;-65
2021/12/30 10:55:16;;;;;;;0.40;0.40;;;;;;;15.10;98.68;100283.13;5012410;28;20186;-65
2021/12/30 10:57:42;;;;;;;0.40;0.40;;;;;;;14.99;99.26;100276.09;5009514;28;20548;-65
2021/12/30 11:00:09;;;;;;;1.50;0.40;;;;;;;15.08;98.35;100279.81;5001385;28;20182;-65
2021/12/30 11:02:35;;;;;;;0.30;0.30;;;;;;;15.14;98.56;100281.97;5024726;28;20241;-65
2021/12/30 11:05:07;;;;;;;0.30;0.30;;;;;;;15.17;97.71;100279.16;5008958;28;20274;-65
2021/12/30 11:07:42;;;;;;;0.37;0.30;;;;;;;15.41;96.27;100285.28;5012475;28;20289;-65
2021/12/30 11:10:07;;;;;;;0.50;0.50;;;;;;;15.35;96.91;100286.56;5013063;28;20200;-65
2021/12/30 11:12:37;;;;;;;0.30;0.30;;;;;;;15.34;96.49;100292.66;5037145;28;20577;-64
2021/12/30 11:15:16;;;;;;;1.40;0.30;;;;;;;15.63;95.86;100284.56;5022126;28;20585;-64
2021/12/30 11:17:41;;;;;;;0.40;0.40;;;;;;;15.51;94.69;100278.50;5030395;28;20209;-64
2021/12/30 11:20:09;;;;;;;0.80;0.60;;;;;;;15.77;94.46;100280.97;5020879;28;20181;-64
2021/12/30 11:22:36;;;;;;;0.40;0.40;;;;;;;15.96;92.42;100278.69;5041952;28;20186;-64